sensor_id;sensor_type;location;lat;lon;timestamp;P1;durP1;ratioP1;P2;durP2;ratioP2
48002;SDS011;33768;48.578;11.574;2024-01-30T00:02:44;8.30;;;5.93;;
48002;SDS011;33768;48.578;11.574;2024-01-30T00:05:49;10.73;;;6.63;;
48002;SDS011;33768;48.578;11.574;2024-01-30T00:08:53;10.57;;;6.83;;
48002;SDS011;33768;48.578;11.574;2024-01-30T00:11:58;10.93;;;7.13;;
48002;SDS011;33768;48.578;11.574;2024-01-30T00:15:02;12.67;;;7.03;;
48002;SDS011;33768;48.578;11.574;2024-01-30T00:18:08;14.27;;;7.27;;
48002;SDS011;33768;48.578;11.574;2024-01-30T00:21:13;12.60;;;6.73;;
48002;SDS011;33768;48.578;11.574;2024-01-30T00:24:20;12.23;;;7.47;;
48002;SDS011;33768;48.578;11.574;2024-01-30T00:27:25;11.30;;;7.87;;
48002;SDS011;33768;48.578;11.574;2024-01-30T00:30:29;11.37;;;6.50;;
48002;SDS011;33768;48.578;11.574;2024-01-30T00:33:34;12.97;;;6.83;;
48002;SDS011;33768;48.578;11.574;2024-01-30T00:36:38;13.00;;;7.30;;
48002;SDS011;33768;48.578;11.574;2024-01-30T00:39:42;12.43;;;7.00;;
48002;SDS011;33768;48.578;11.574;2024-01-30T00:42:46;12.73;;;6.97;;
48002;SDS011;33768;48.578;11.574;2024-01-30T00:45:51;12.20;;;7.43;;
48002;SDS011;33768;48.578;11.574;2024-01-30T00:48:58;9.93;;;6.80;;
48002;SDS011;33768;48.578;11.574;2024-01-30T00:52:02;12.50;;;6.83;;
48002;SDS011;33768;48.578;11.574;2024-01-30T00:55:08;10.80;;;6.63;;
48002;SDS011;33768;48.578;11.574;2024-01-30T00:58:13;13.13;;;7.23;;
48002;SDS011;33768;48.578;11.574;2024-01-30T01:01:17;13.73;;;6.87;;
48002;SDS011;33768;48.578;11.574;2024-01-30T01:04:21;10.40;;;6.60;;
48002;SDS011;33768;48.578;11.574;2024-01-30T01:07:26;11.77;;;6.93;;
48002;SDS011;33768;48.578;11.574;2024-01-30T01:10:32;12.60;;;7.33;;
48002;SDS011;33768;48.578;11.574;2024-01-30T01:13:36;12.10;;;7.83;;
48002;SDS011;33768;48.578;11.574;2024-01-30T01:16:40;12.90;;;7.90;;
48002;SDS011;33768;48.578;11.574;2024-01-30T01:19:44;15.27;;;8.60;;
48002;SDS011;33768;48.578;11.574;2024-01-30T01:22:48;15.50;;;8.73;;
48002;SDS011;33768;48.578;11.574;2024-01-30T01:25:53;17.73;;;9.13;;
48002;SDS011;33768;48.578;11.574;2024-01-30T01:28:57;18.50;;;9.03;;
48002;SDS011;33768;48.578;11.574;2024-01-30T01:32:03;12.70;;;8.17;;
48002;SDS011;33768;48.578;11.574;2024-01-30T01:35:07;14.90;;;8.70;;
48002;SDS011;33768;48.578;11.574;2024-01-30T01:38:11;14.80;;;8.63;;
48002;SDS011;33768;48.578;11.574;2024-01-30T01:41:15;16.83;;;8.40;;
48002;SDS011;33768;48.578;11.574;2024-01-30T01:44:20;12.60;;;7.17;;
48002;SDS011;33768;48.578;11.574;2024-01-30T01:47:24;19.93;;;7.87;;
48002;SDS011;33768;48.578;11.574;2024-01-30T01:50:28;13.43;;;7.73;;
48002;SDS011;33768;48.578;11.574;2024-01-30T01:53:33;13.77;;;7.83;;
48002;SDS011;33768;48.578;11.574;2024-01-30T01:56:38;14.20;;;8.27;;
48002;SDS011;33768;48.578;11.574;2024-01-30T01:59:45;12.47;;;7.90;;
48002;SDS011;33768;48.578;11.574;2024-01-30T02:02:50;11.23;;;7.80;;
48002;SDS011;33768;48.578;11.574;2024-01-30T02:05:55;11.90;;;7.57;;
48002;SDS011;33768;48.578;11.574;2024-01-30T02:09:00;13.77;;;7.63;;
48002;SDS011;33768;48.578;11.574;2024-01-30T02:12:04;13.60;;;8.20;;
48002;SDS011;33768;48.578;11.574;2024-01-30T02:15:12;9.97;;;7.53;;
48002;SDS011;33768;48.578;11.574;2024-01-30T02:18:19;13.57;;;7.27;;
48002;SDS011;33768;48.578;11.574;2024-01-30T02:21:39;11.90;;;7.30;;
48002;SDS011;33768;48.578;11.574;2024-01-30T02:24:43;18.07;;;7.97;;
48002;SDS011;33768;48.578;11.574;2024-01-30T02:27:47;12.17;;;7.47;;
48002;SDS011;33768;48.578;11.574;2024-01-30T02:30:52;12.90;;;7.57;;
48002;SDS011;33768;48.578;11.574;2024-01-30T02:33:56;15.77;;;8.80;;
48002;SDS011;33768;48.578;11.574;2024-01-30T02:37:00;15.37;;;8.53;;
48002;SDS011;33768;48.578;11.574;2024-01-30T02:40:06;11.77;;;8.13;;
48002;SDS011;33768;48.578;11.574;2024-01-30T02:43:10;12.50;;;8.60;;
48002;SDS011;33768;48.578;11.574;2024-01-30T02:46:15;13.53;;;8.20;;
48002;SDS011;33768;48.578;11.574;2024-01-30T02:49:19;14.03;;;8.20;;
48002;SDS011;33768;48.578;11.574;2024-01-30T02:52:24;14.07;;;8.10;;
48002;SDS011;33768;48.578;11.574;2024-01-30T02:55:28;14.80;;;9.13;;
48002;SDS011;33768;48.578;11.574;2024-01-30T02:58:32;16.13;;;8.80;;
48002;SDS011;33768;48.578;11.574;2024-01-30T03:01:43;13.43;;;9.10;;
48002;SDS011;33768;48.578;11.574;2024-01-30T03:04:48;13.57;;;8.93;;
48002;SDS011;33768;48.578;11.574;2024-01-30T03:07:52;16.80;;;8.20;;
48002;SDS011;33768;48.578;11.574;2024-01-30T03:10:56;13.07;;;8.73;;
48002;SDS011;33768;48.578;11.574;2024-01-30T03:14:00;14.43;;;8.90;;
48002;SDS011;33768;48.578;11.574;2024-01-30T03:17:04;13.77;;;9.73;;
48002;SDS011;33768;48.578;11.574;2024-01-30T03:20:09;16.73;;;9.77;;
48002;SDS011;33768;48.578;11.574;2024-01-30T03:23:13;13.43;;;9.60;;
48002;SDS011;33768;48.578;11.574;2024-01-30T03:26:19;17.77;;;10.23;;
48002;SDS011;33768;48.578;11.574;2024-01-30T03:29:26;17.50;;;10.23;;
48002;SDS011;33768;48.578;11.574;2024-01-30T03:32:30;18.47;;;10.43;;
48002;SDS011;33768;48.578;11.574;2024-01-30T03:35:34;16.23;;;10.27;;
48002;SDS011;33768;48.578;11.574;2024-01-30T03:38:39;17.10;;;9.90;;
48002;SDS011;33768;48.578;11.574;2024-01-30T03:42:04;13.63;;;9.63;;
48002;SDS011;33768;48.578;11.574;2024-01-30T03:45:10;15.70;;;9.83;;
48002;SDS011;33768;48.578;11.574;2024-01-30T03:48:14;16.73;;;10.00;;
48002;SDS011;33768;48.578;11.574;2024-01-30T03:51:19;16.17;;;10.40;;
48002;SDS011;33768;48.578;11.574;2024-01-30T03:54:23;21.97;;;11.13;;
48002;SDS011;33768;48.578;11.574;2024-01-30T03:57:27;17.00;;;10.63;;
48002;SDS011;33768;48.578;11.574;2024-01-30T04:00:32;14.70;;;10.13;;
48002;SDS011;33768;48.578;11.574;2024-01-30T04:03:36;15.13;;;10.23;;
48002;SDS011;33768;48.578;11.574;2024-01-30T04:06:40;15.70;;;10.27;;
48002;SDS011;33768;48.578;11.574;2024-01-30T04:09:44;16.00;;;9.80;;
48002;SDS011;33768;48.578;11.574;2024-01-30T04:12:51;14.47;;;9.90;;
48002;SDS011;33768;48.578;11.574;2024-01-30T04:15:59;16.37;;;9.80;;
48002;SDS011;33768;48.578;11.574;2024-01-30T04:19:05;19.37;;;10.43;;
48002;SDS011;33768;48.578;11.574;2024-01-30T04:22:09;14.77;;;9.50;;
48002;SDS011;33768;48.578;11.574;2024-01-30T04:25:14;14.73;;;9.20;;
48002;SDS011;33768;48.578;11.574;2024-01-30T04:28:18;13.27;;;8.90;;
48002;SDS011;33768;48.578;11.574;2024-01-30T04:31:22;15.27;;;9.47;;
48002;SDS011;33768;48.578;11.574;2024-01-30T04:34:26;13.17;;;8.70;;
48002;SDS011;33768;48.578;11.574;2024-01-30T04:37:31;13.57;;;9.40;;
48002;SDS011;33768;48.578;11.574;2024-01-30T04:40:35;13.43;;;9.17;;
48002;SDS011;33768;48.578;11.574;2024-01-30T04:43:39;21.13;;;9.80;;
48002;SDS011;33768;48.578;11.574;2024-01-30T04:46:43;16.97;;;10.03;;
48002;SDS011;33768;48.578;11.574;2024-01-30T04:49:47;17.10;;;10.07;;
48002;SDS011;33768;48.578;11.574;2024-01-30T04:52:51;14.53;;;10.13;;
48002;SDS011;33768;48.578;11.574;2024-01-30T04:55:55;14.03;;;9.53;;
48002;SDS011;33768;48.578;11.574;2024-01-30T04:58:59;11.97;;;9.30;;
48002;SDS011;33768;48.578;11.574;2024-01-30T05:02:04;14.70;;;9.57;;
48002;SDS011;33768;48.578;11.574;2024-01-30T05:05:08;13.07;;;9.40;;
48002;SDS011;33768;48.578;11.574;2024-01-30T05:08:12;15.50;;;9.50;;
48002;SDS011;33768;48.578;11.574;2024-01-30T05:11:16;18.27;;;11.13;;
48002;SDS011;33768;48.578;11.574;2024-01-30T05:14:20;18.03;;;10.97;;
48002;SDS011;33768;48.578;11.574;2024-01-30T05:17:25;17.03;;;10.67;;
48002;SDS011;33768;48.578;11.574;2024-01-30T05:20:29;21.50;;;10.83;;
48002;SDS011;33768;48.578;11.574;2024-01-30T05:23:34;16.27;;;10.27;;
48002;SDS011;33768;48.578;11.574;2024-01-30T05:26:38;19.10;;;10.97;;
48002;SDS011;33768;48.578;11.574;2024-01-30T05:29:43;16.27;;;11.07;;
48002;SDS011;33768;48.578;11.574;2024-01-30T05:32:48;16.83;;;10.83;;
48002;SDS011;33768;48.578;11.574;2024-01-30T05:35:52;14.90;;;9.87;;
48002;SDS011;33768;48.578;11.574;2024-01-30T05:38:58;16.57;;;10.53;;
48002;SDS011;33768;48.578;11.574;2024-01-30T05:42:02;19.37;;;10.10;;
48002;SDS011;33768;48.578;11.574;2024-01-30T05:45:29;17.10;;;10.60;;
48002;SDS011;33768;48.578;11.574;2024-01-30T05:48:32;15.73;;;10.63;;
48002;SDS011;33768;48.578;11.574;2024-01-30T05:51:45;20.23;;;10.10;;
48002;SDS011;33768;48.578;11.574;2024-01-30T05:55:24;16.90;;;10.63;;
48002;SDS011;33768;48.578;11.574;2024-01-30T05:58:29;15.67;;;10.37;;
48002;SDS011;33768;48.578;11.574;2024-01-30T06:01:34;16.50;;;10.57;;
48002;SDS011;33768;48.578;11.574;2024-01-30T06:04:38;15.13;;;9.57;;
48002;SDS011;33768;48.578;11.574;2024-01-30T06:07:42;17.43;;;11.27;;
48002;SDS011;33768;48.578;11.574;2024-01-30T06:10:46;14.77;;;10.70;;
48002;SDS011;33768;48.578;11.574;2024-01-30T06:13:56;15.20;;;9.17;;
48002;SDS011;33768;48.578;11.574;2024-01-30T06:17:01;18.57;;;11.20;;
48002;SDS011;33768;48.578;11.574;2024-01-30T06:20:05;16.67;;;11.20;;
48002;SDS011;33768;48.578;11.574;2024-01-30T06:23:09;16.57;;;10.63;;
48002;SDS011;33768;48.578;11.574;2024-01-30T06:26:14;16.20;;;10.80;;
48002;SDS011;33768;48.578;11.574;2024-01-30T06:29:18;17.10;;;10.77;;
48002;SDS011;33768;48.578;11.574;2024-01-30T06:32:22;15.10;;;9.27;;
48002;SDS011;33768;48.578;11.574;2024-01-30T06:35:28;16.07;;;10.13;;
48002;SDS011;33768;48.578;11.574;2024-01-30T06:38:32;18.67;;;11.30;;
48002;SDS011;33768;48.578;11.574;2024-01-30T06:41:36;16.43;;;10.60;;
48002;SDS011;33768;48.578;11.574;2024-01-30T06:44:41;20.07;;;11.47;;
48002;SDS011;33768;48.578;11.574;2024-01-30T06:47:45;18.50;;;11.43;;
48002;SDS011;33768;48.578;11.574;2024-01-30T06:50:49;20.20;;;11.67;;
48002;SDS011;33768;48.578;11.574;2024-01-30T06:53:54;18.30;;;11.47;;
48002;SDS011;33768;48.578;11.574;2024-01-30T06:56:58;18.13;;;10.33;;
48002;SDS011;33768;48.578;11.574;2024-01-30T07:00:05;16.80;;;11.23;;
48002;SDS011;33768;48.578;11.574;2024-01-30T07:03:10;23.47;;;12.23;;
48002;SDS011;33768;48.578;11.574;2024-01-30T07:06:14;18.07;;;11.40;;
48002;SDS011;33768;48.578;11.574;2024-01-30T07:09:19;15.23;;;10.23;;
48002;SDS011;33768;48.578;11.574;2024-01-30T07:12:23;17.57;;;11.47;;
48002;SDS011;33768;48.578;11.574;2024-01-30T07:15:30;18.60;;;11.50;;
48002;SDS011;33768;48.578;11.574;2024-01-30T07:18:34;14.77;;;10.17;;
48002;SDS011;33768;48.578;11.574;2024-01-30T07:21:38;17.87;;;11.63;;
48002;SDS011;33768;48.578;11.574;2024-01-30T07:24:44;21.37;;;11.83;;
48002;SDS011;33768;48.578;11.574;2024-01-30T07:27:49;17.50;;;11.33;;
48002;SDS011;33768;48.578;11.574;2024-01-30T07:30:53;17.77;;;10.60;;
48002;SDS011;33768;48.578;11.574;2024-01-30T07:33:58;16.00;;;11.20;;
48002;SDS011;33768;48.578;11.574;2024-01-30T07:37:02;20.27;;;10.97;;
48002;SDS011;33768;48.578;11.574;2024-01-30T07:40:06;16.93;;;10.80;;
48002;SDS011;33768;48.578;11.574;2024-01-30T07:43:11;17.70;;;11.33;;
48002;SDS011;33768;48.578;11.574;2024-01-30T07:46:15;16.20;;;10.53;;
48002;SDS011;33768;48.578;11.574;2024-01-30T07:49:20;16.17;;;10.40;;
48002;SDS011;33768;48.578;11.574;2024-01-30T07:52:24;18.50;;;10.07;;
48002;SDS011;33768;48.578;11.574;2024-01-30T07:55:28;18.00;;;11.43;;
48002;SDS011;33768;48.578;11.574;2024-01-30T07:58:34;18.50;;;12.67;;
48002;SDS011;33768;48.578;11.574;2024-01-30T08:01:38;17.07;;;10.90;;
48002;SDS011;33768;48.578;11.574;2024-01-30T08:04:42;15.87;;;11.10;;
48002;SDS011;33768;48.578;11.574;2024-01-30T08:07:47;19.10;;;11.67;;
48002;SDS011;33768;48.578;11.574;2024-01-30T08:10:51;16.73;;;11.00;;
48002;SDS011;33768;48.578;11.574;2024-01-30T08:13:56;17.60;;;10.90;;
48002;SDS011;33768;48.578;11.574;2024-01-30T08:17:00;14.13;;;10.17;;
48002;SDS011;33768;48.578;11.574;2024-01-30T08:20:04;19.67;;;10.90;;
48002;SDS011;33768;48.578;11.574;2024-01-30T08:26:39;17.40;;;10.83;;
48002;SDS011;33768;48.578;11.574;2024-01-30T08:29:43;17.50;;;10.77;;
48002;SDS011;33768;48.578;11.574;2024-01-30T08:32:47;16.80;;;11.03;;
48002;SDS011;33768;48.578;11.574;2024-01-30T08:35:52;16.70;;;10.20;;
48002;SDS011;33768;48.578;11.574;2024-01-30T08:38:57;14.03;;;9.93;;
48002;SDS011;33768;48.578;11.574;2024-01-30T08:42:02;14.27;;;9.73;;
48002;SDS011;33768;48.578;11.574;2024-01-30T08:45:06;15.57;;;9.87;;
48002;SDS011;33768;48.578;11.574;2024-01-30T08:48:12;17.17;;;10.53;;
48002;SDS011;33768;48.578;11.574;2024-01-30T08:51:16;15.07;;;9.60;;
48002;SDS011;33768;48.578;11.574;2024-01-30T08:54:21;15.03;;;9.60;;
48002;SDS011;33768;48.578;11.574;2024-01-30T08:57:25;14.70;;;10.17;;
48002;SDS011;33768;48.578;11.574;2024-01-30T09:00:32;15.57;;;9.83;;
48002;SDS011;33768;48.578;11.574;2024-01-30T09:03:36;16.33;;;9.57;;
48002;SDS011;33768;48.578;11.574;2024-01-30T09:06:43;14.13;;;9.70;;
48002;SDS011;33768;48.578;11.574;2024-01-30T09:09:48;14.57;;;10.23;;
48002;SDS011;33768;48.578;11.574;2024-01-30T09:12:52;15.07;;;10.07;;
48002;SDS011;33768;48.578;11.574;2024-01-30T09:15:57;17.20;;;10.90;;
48002;SDS011;33768;48.578;11.574;2024-01-30T09:19:01;15.03;;;10.07;;
48002;SDS011;33768;48.578;11.574;2024-01-30T09:22:06;14.33;;;10.67;;
48002;SDS011;33768;48.578;11.574;2024-01-30T09:25:10;14.57;;;9.83;;
48002;SDS011;33768;48.578;11.574;2024-01-30T09:28:14;16.37;;;11.10;;
48002;SDS011;33768;48.578;11.574;2024-01-30T09:31:18;14.13;;;10.50;;
48002;SDS011;33768;48.578;11.574;2024-01-30T09:34:23;15.57;;;10.77;;
48002;SDS011;33768;48.578;11.574;2024-01-30T09:37:27;16.17;;;10.90;;
48002;SDS011;33768;48.578;11.574;2024-01-30T09:40:31;16.70;;;10.83;;
48002;SDS011;33768;48.578;11.574;2024-01-30T09:43:36;15.40;;;10.60;;
48002;SDS011;33768;48.578;11.574;2024-01-30T09:46:42;16.20;;;10.20;;
48002;SDS011;33768;48.578;11.574;2024-01-30T09:49:47;18.60;;;10.60;;
48002;SDS011;33768;48.578;11.574;2024-01-30T09:52:52;14.17;;;10.33;;
48002;SDS011;33768;48.578;11.574;2024-01-30T09:55:58;14.43;;;10.20;;
48002;SDS011;33768;48.578;11.574;2024-01-30T09:59:06;15.03;;;9.73;;
48002;SDS011;33768;48.578;11.574;2024-01-30T10:02:10;17.37;;;10.80;;
48002;SDS011;33768;48.578;11.574;2024-01-30T10:05:15;14.97;;;9.80;;
48002;SDS011;33768;48.578;11.574;2024-01-30T10:08:22;16.43;;;10.13;;
48002;SDS011;33768;48.578;11.574;2024-01-30T12:38:32;7.93;;;5.80;;
48002;SDS011;33768;48.578;11.574;2024-01-30T12:41:37;8.97;;;5.03;;
48002;SDS011;33768;48.578;11.574;2024-01-30T12:48:17;10.50;;;6.13;;
48002;SDS011;33768;48.578;11.574;2024-01-30T12:51:22;10.20;;;6.70;;
48002;SDS011;33768;48.578;11.574;2024-01-30T12:54:48;8.03;;;4.77;;
48002;SDS011;33768;48.578;11.574;2024-01-30T12:57:52;7.90;;;4.63;;
48002;SDS011;33768;48.578;11.574;2024-01-30T13:00:56;6.47;;;4.43;;
48002;SDS011;33768;48.578;11.574;2024-01-30T13:04:01;6.27;;;4.50;;
48002;SDS011;33768;48.578;11.574;2024-01-30T13:07:05;7.33;;;4.70;;
48002;SDS011;33768;48.578;11.574;2024-01-30T13:10:11;8.50;;;4.87;;
48002;SDS011;33768;48.578;11.574;2024-01-30T14:43:33;11.63;;;8.93;;
48002;SDS011;33768;48.578;11.574;2024-01-30T14:56:17;10.50;;;8.27;;
48002;SDS011;33768;48.578;11.574;2024-01-30T15:06:04;12.67;;;9.70;;
48002;SDS011;33768;48.578;11.574;2024-01-30T15:16:38;13.23;;;7.70;;
48002;SDS011;33768;48.578;11.574;2024-01-30T15:19:43;13.87;;;8.60;;
48002;SDS011;33768;48.578;11.574;2024-01-30T15:22:48;11.50;;;8.43;;
48002;SDS011;33768;48.578;11.574;2024-01-30T15:26:01;11.00;;;7.80;;
48002;SDS011;33768;48.578;11.574;2024-01-30T15:29:06;14.17;;;8.87;;
48002;SDS011;33768;48.578;11.574;2024-01-30T15:32:11;12.50;;;8.93;;
48002;SDS011;33768;48.578;11.574;2024-01-30T15:35:18;9.43;;;7.53;;
48002;SDS011;33768;48.578;11.574;2024-01-30T15:38:32;11.33;;;8.60;;
48002;SDS011;33768;48.578;11.574;2024-01-30T15:41:44;11.90;;;8.20;;
48002;SDS011;33768;48.578;11.574;2024-01-30T15:44:51;11.70;;;7.87;;
48002;SDS011;33768;48.578;11.574;2024-01-30T15:48:02;11.40;;;7.83;;
48002;SDS011;33768;48.578;11.574;2024-01-30T15:51:20;13.67;;;8.13;;
48002;SDS011;33768;48.578;11.574;2024-01-30T15:58:43;10.03;;;7.57;;
48002;SDS011;33768;48.578;11.574;2024-01-30T16:01:54;13.23;;;8.87;;
48002;SDS011;33768;48.578;11.574;2024-01-30T16:05:00;14.00;;;9.77;;
48002;SDS011;33768;48.578;11.574;2024-01-30T16:08:07;14.37;;;9.73;;
48002;SDS011;33768;48.578;11.574;2024-01-30T16:11:12;15.17;;;10.00;;
48002;SDS011;33768;48.578;11.574;2024-01-30T16:14:35;15.07;;;10.40;;
48002;SDS011;33768;48.578;11.574;2024-01-30T16:18:02;13.53;;;9.47;;
48002;SDS011;33768;48.578;11.574;2024-01-30T16:21:29;18.47;;;10.23;;
48002;SDS011;33768;48.578;11.574;2024-01-30T16:24:55;16.50;;;11.73;;
48002;SDS011;33768;48.578;11.574;2024-01-30T16:28:19;17.60;;;13.00;;
48002;SDS011;33768;48.578;11.574;2024-01-30T16:31:48;15.40;;;10.80;;
48002;SDS011;33768;48.578;11.574;2024-01-30T16:35:17;16.60;;;10.87;;
48002;SDS011;33768;48.578;11.574;2024-01-30T16:38:42;19.50;;;11.33;;
48002;SDS011;33768;48.578;11.574;2024-01-30T16:42:06;17.97;;;12.03;;
48002;SDS011;33768;48.578;11.574;2024-01-30T16:45:35;17.27;;;11.50;;
48002;SDS011;33768;48.578;11.574;2024-01-30T16:48:58;14.43;;;10.70;;
48002;SDS011;33768;48.578;11.574;2024-01-30T16:52:25;16.70;;;10.10;;
48002;SDS011;33768;48.578;11.574;2024-01-30T16:55:54;15.50;;;9.53;;
48002;SDS011;33768;48.578;11.574;2024-01-30T16:59:26;16.93;;;10.07;;
48002;SDS011;33768;48.578;11.574;2024-01-30T17:02:50;15.10;;;10.60;;
48002;SDS011;33768;48.578;11.574;2024-01-30T17:06:22;19.03;;;10.60;;
48002;SDS011;33768;48.578;11.574;2024-01-30T17:09:51;13.00;;;9.47;;
48002;SDS011;33768;48.578;11.574;2024-01-30T17:13:21;13.47;;;10.10;;
48002;SDS011;33768;48.578;11.574;2024-01-30T17:16:55;17.13;;;10.73;;
48002;SDS011;33768;48.578;11.574;2024-01-30T17:20:23;13.87;;;10.20;;
48002;SDS011;33768;48.578;11.574;2024-01-30T17:23:48;15.33;;;9.60;;
48002;SDS011;33768;48.578;11.574;2024-01-30T17:27:12;14.40;;;8.90;;
48002;SDS011;33768;48.578;11.574;2024-01-30T17:30:43;13.10;;;9.00;;
48002;SDS011;33768;48.578;11.574;2024-01-30T17:34:07;14.87;;;8.70;;
48002;SDS011;33768;48.578;11.574;2024-01-30T17:37:37;11.40;;;7.67;;
48002;SDS011;33768;48.578;11.574;2024-01-30T17:41:00;13.30;;;8.50;;
48002;SDS011;33768;48.578;11.574;2024-01-30T17:44:30;11.67;;;7.87;;
48002;SDS011;33768;48.578;11.574;2024-01-30T17:47:57;11.07;;;7.23;;
48002;SDS011;33768;48.578;11.574;2024-01-30T17:51:23;12.67;;;8.20;;
48002;SDS011;33768;48.578;11.574;2024-01-30T17:54:46;11.83;;;8.43;;
48002;SDS011;33768;48.578;11.574;2024-01-30T17:58:11;12.60;;;8.83;;
48002;SDS011;33768;48.578;11.574;2024-01-30T18:01:15;11.27;;;7.73;;
48002;SDS011;33768;48.578;11.574;2024-01-30T18:04:20;13.20;;;8.37;;
48002;SDS011;33768;48.578;11.574;2024-01-30T18:07:25;16.87;;;9.07;;
48002;SDS011;33768;48.578;11.574;2024-01-30T18:10:30;13.17;;;9.57;;
48002;SDS011;33768;48.578;11.574;2024-01-30T18:13:35;10.93;;;8.70;;
48002;SDS011;33768;48.578;11.574;2024-01-30T18:16:41;12.97;;;8.17;;
48002;SDS011;33768;48.578;11.574;2024-01-30T18:19:47;11.13;;;7.90;;
48002;SDS011;33768;48.578;11.574;2024-01-30T18:22:51;10.37;;;7.90;;
48002;SDS011;33768;48.578;11.574;2024-01-30T18:25:56;11.33;;;7.77;;
48002;SDS011;33768;48.578;11.574;2024-01-30T18:29:03;14.90;;;8.63;;
48002;SDS011;33768;48.578;11.574;2024-01-30T18:32:08;12.30;;;8.87;;
48002;SDS011;33768;48.578;11.574;2024-01-30T18:35:13;12.97;;;8.77;;
48002;SDS011;33768;48.578;11.574;2024-01-30T18:38:17;14.53;;;9.23;;
48002;SDS011;33768;48.578;11.574;2024-01-30T18:41:21;13.53;;;8.57;;
48002;SDS011;33768;48.578;11.574;2024-01-30T18:44:25;15.10;;;9.20;;
48002;SDS011;33768;48.578;11.574;2024-01-30T18:47:29;12.93;;;8.93;;
48002;SDS011;33768;48.578;11.574;2024-01-30T18:50:36;14.57;;;9.70;;
48002;SDS011;33768;48.578;11.574;2024-01-30T18:53:41;14.23;;;10.13;;
48002;SDS011;33768;48.578;11.574;2024-01-30T18:56:49;16.63;;;11.30;;
48002;SDS011;33768;48.578;11.574;2024-01-30T18:59:57;21.00;;;12.67;;
48002;SDS011;33768;48.578;11.574;2024-01-30T19:03:08;24.27;;;15.43;;
48002;SDS011;33768;48.578;11.574;2024-01-30T19:06:13;23.53;;;15.33;;
48002;SDS011;33768;48.578;11.574;2024-01-30T19:09:20;22.03;;;14.73;;
48002;SDS011;33768;48.578;11.574;2024-01-30T19:12:31;26.83;;;16.20;;
48002;SDS011;33768;48.578;11.574;2024-01-30T19:15:39;27.13;;;15.97;;
48002;SDS011;33768;48.578;11.574;2024-01-30T19:18:50;26.83;;;16.27;;
48002;SDS011;33768;48.578;11.574;2024-01-30T19:22:04;29.37;;;15.80;;
48002;SDS011;33768;48.578;11.574;2024-01-30T19:25:08;24.87;;;15.83;;
48002;SDS011;33768;48.578;11.574;2024-01-30T19:28:12;26.13;;;16.07;;
48002;SDS011;33768;48.578;11.574;2024-01-30T19:31:17;27.37;;;15.00;;
48002;SDS011;33768;48.578;11.574;2024-01-30T19:34:21;21.43;;;13.77;;
48002;SDS011;33768;48.578;11.574;2024-01-30T19:37:25;21.30;;;13.30;;
48002;SDS011;33768;48.578;11.574;2024-01-30T19:40:30;19.03;;;12.70;;
48002;SDS011;33768;48.578;11.574;2024-01-30T19:43:34;19.90;;;11.33;;
48002;SDS011;33768;48.578;11.574;2024-01-30T19:46:38;24.13;;;15.40;;
48002;SDS011;33768;48.578;11.574;2024-01-30T19:49:43;26.20;;;15.80;;
48002;SDS011;33768;48.578;11.574;2024-01-30T19:52:47;26.03;;;16.97;;
48002;SDS011;33768;48.578;11.574;2024-01-30T19:55:52;26.60;;;16.17;;
48002;SDS011;33768;48.578;11.574;2024-01-30T19:58:56;27.37;;;16.80;;
48002;SDS011;33768;48.578;11.574;2024-01-30T20:02:00;29.47;;;17.23;;
48002;SDS011;33768;48.578;11.574;2024-01-30T20:05:07;25.60;;;14.90;;
48002;SDS011;33768;48.578;11.574;2024-01-30T20:08:12;26.33;;;15.93;;
48002;SDS011;33768;48.578;11.574;2024-01-30T20:11:19;28.30;;;15.80;;
48002;SDS011;33768;48.578;11.574;2024-01-30T20:14:24;23.23;;;14.80;;
48002;SDS011;33768;48.578;11.574;2024-01-30T20:17:28;24.57;;;14.70;;
48002;SDS011;33768;48.578;11.574;2024-01-30T20:20:32;24.40;;;13.80;;
48002;SDS011;33768;48.578;11.574;2024-01-30T20:23:37;22.03;;;12.97;;
48002;SDS011;33768;48.578;11.574;2024-01-30T20:26:42;21.17;;;13.50;;
48002;SDS011;33768;48.578;11.574;2024-01-30T20:29:47;17.77;;;11.67;;
48002;SDS011;33768;48.578;11.574;2024-01-30T20:32:52;15.53;;;10.63;;
48002;SDS011;33768;48.578;11.574;2024-01-30T20:35:56;16.53;;;10.73;;
48002;SDS011;33768;48.578;11.574;2024-01-30T20:39:05;18.70;;;10.33;;
48002;SDS011;33768;48.578;11.574;2024-01-30T20:42:11;16.80;;;10.57;;
48002;SDS011;33768;48.578;11.574;2024-01-30T20:45:16;14.13;;;9.87;;
48002;SDS011;33768;48.578;11.574;2024-01-30T20:48:20;18.40;;;11.20;;
48002;SDS011;33768;48.578;11.574;2024-01-30T20:51:24;18.10;;;10.53;;
48002;SDS011;33768;48.578;11.574;2024-01-30T20:54:29;16.27;;;9.90;;
48002;SDS011;33768;48.578;11.574;2024-01-30T20:57:35;12.93;;;9.60;;
48002;SDS011;33768;48.578;11.574;2024-01-30T21:00:39;12.50;;;9.27;;
48002;SDS011;33768;48.578;11.574;2024-01-30T21:03:43;14.83;;;9.27;;
48002;SDS011;33768;48.578;11.574;2024-01-30T21:06:48;13.33;;;9.20;;
48002;SDS011;33768;48.578;11.574;2024-01-30T21:09:52;13.10;;;8.67;;
48002;SDS011;33768;48.578;11.574;2024-01-30T21:12:56;11.13;;;8.67;;
48002;SDS011;33768;48.578;11.574;2024-01-30T21:16:00;11.53;;;8.43;;
48002;SDS011;33768;48.578;11.574;2024-01-30T21:19:05;10.53;;;8.20;;
48002;SDS011;33768;48.578;11.574;2024-01-30T21:22:10;11.70;;;8.43;;
48002;SDS011;33768;48.578;11.574;2024-01-30T21:25:14;12.03;;;8.60;;
48002;SDS011;33768;48.578;11.574;2024-01-30T21:28:22;12.77;;;8.37;;
48002;SDS011;33768;48.578;11.574;2024-01-30T21:31:26;11.63;;;8.03;;
48002;SDS011;33768;48.578;11.574;2024-01-30T21:34:30;14.00;;;7.70;;
48002;SDS011;33768;48.578;11.574;2024-01-30T21:37:34;13.17;;;7.90;;
48002;SDS011;33768;48.578;11.574;2024-01-30T21:40:40;17.83;;;8.20;;
48002;SDS011;33768;48.578;11.574;2024-01-30T21:43:45;11.07;;;7.80;;
48002;SDS011;33768;48.578;11.574;2024-01-30T21:46:59;11.40;;;8.07;;
48002;SDS011;33768;48.578;11.574;2024-01-30T21:50:09;9.97;;;7.57;;
48002;SDS011;33768;48.578;11.574;2024-01-30T21:53:21;13.83;;;8.17;;
48002;SDS011;33768;48.578;11.574;2024-01-30T21:56:30;13.10;;;8.07;;
48002;SDS011;33768;48.578;11.574;2024-01-30T21:59:38;12.07;;;8.00;;
48002;SDS011;33768;48.578;11.574;2024-01-30T22:02:47;13.17;;;8.30;;
48002;SDS011;33768;48.578;11.574;2024-01-30T22:05:52;10.93;;;7.30;;
48002;SDS011;33768;48.578;11.574;2024-01-30T22:08:57;11.13;;;8.13;;
48002;SDS011;33768;48.578;11.574;2024-01-30T22:12:01;12.83;;;8.53;;
48002;SDS011;33768;48.578;11.574;2024-01-30T22:15:05;11.27;;;7.83;;
48002;SDS011;33768;48.578;11.574;2024-01-30T22:18:09;11.67;;;8.20;;
48002;SDS011;33768;48.578;11.574;2024-01-30T22:21:14;10.97;;;7.97;;
48002;SDS011;33768;48.578;11.574;2024-01-30T22:24:20;12.40;;;7.20;;
48002;SDS011;33768;48.578;11.574;2024-01-30T22:27:24;10.00;;;7.17;;
48002;SDS011;33768;48.578;11.574;2024-01-30T22:30:28;14.53;;;7.43;;
48002;SDS011;33768;48.578;11.574;2024-01-30T22:33:32;15.57;;;8.17;;
48002;SDS011;33768;48.578;11.574;2024-01-30T22:36:36;13.10;;;8.00;;
48002;SDS011;33768;48.578;11.574;2024-01-30T22:39:40;14.87;;;8.40;;
48002;SDS011;33768;48.578;11.574;2024-01-30T22:42:45;14.40;;;9.47;;